sensor_id;sensor_type;location;lat;lon;timestamp;pressure;altitude;pressure_sealevel;temperature;humidity
10718;BME280;13513;42.700;23.124;2023-01-31T00:00:41;92399.49;;;1.11;74.64
10718;BME280;13513;42.700;23.124;2023-01-31T00:03:12;92398.55;;;1.21;71.37
10718;BME280;13513;42.700;23.124;2023-01-31T00:05:42;92393.55;;;1.32;74.66
10718;BME280;13513;42.700;23.124;2023-01-31T00:08:13;92402.49;;;1.08;75.75
10718;BME280;13513;42.700;23.124;2023-01-31T00:10:43;92405.77;;;1.25;79.28
10718;BME280;13513;42.700;23.124;2023-01-31T00:13:14;92400.38;;;1.20;73.61
10718;BME280;13513;42.700;23.124;2023-01-31T00:15:45;92408.16;;;1.27;68.08
10718;BME280;13513;42.700;23.124;2023-01-31T00:18:16;92405.83;;;1.34;65.72
10718;BME280;13513;42.700;23.124;2023-01-31T00:20:47;92408.75;;;1.29;78.05
10718;BME280;13513;42.700;23.124;2023-01-31T00:23:17;92414.08;;;1.18;78.66
10718;BME280;13513;42.700;23.124;2023-01-31T00:25:48;92414.10;;;1.05;80.77
10718;BME280;13513;42.700;23.124;2023-01-31T00:28:19;92408.60;;;0.91;80.95
10718;BME280;13513;42.700;23.124;2023-01-31T00:30:49;92410.30;;;0.88;80.54
10718;BME280;13513;42.700;23.124;2023-01-31T00:33:20;92406.52;;;0.78;76.16
10718;BME280;13513;42.700;23.124;2023-01-31T00:35:51;92406.61;;;0.80;67.71
10718;BME280;13513;42.700;23.124;2023-01-31T00:38:22;92403.50;;;1.07;60.92
10718;BME280;13513;42.700;23.124;2023-01-31T00:40:53;92409.53;;;1.36;57.14
10718;BME280;13513;42.700;23.124;2023-01-31T00:43:23;92407.31;;;1.46;64.13
10718;BME280;13513;42.700;23.124;2023-01-31T00:45:53;92403.07;;;1.23;76.72
10718;BME280;13513;42.700;23.124;2023-01-31T00:48:23;92400.71;;;0.89;75.89
10718;BME280;13513;42.700;23.124;2023-01-31T00:50:52;92405.90;;;0.95;65.84
10718;BME280;13513;42.700;23.124;2023-01-31T00:53:22;92405.62;;;0.81;78.43
10718;BME280;13513;42.700;23.124;2023-01-31T00:55:55;92409.11;;;0.78;78.55
10718;BME280;13513;42.700;23.124;2023-01-31T00:58:25;92418.41;;;0.76;78.41
10718;BME280;13513;42.700;23.124;2023-01-31T01:01:03;92435.11;;;0.78;78.53
10718;BME280;13513;42.700;23.124;2023-01-31T01:03:28;92439.30;;;0.66;81.11
10718;BME280;13513;42.700;23.124;2023-01-31T01:05:59;92445.86;;;0.42;83.93
10718;BME280;13513;42.700;23.124;2023-01-31T01:08:29;92432.96;;;0.32;86.51
10718;BME280;13513;42.700;23.124;2023-01-31T01:11:13;92433.62;;;0.10;84.37
10718;BME280;13513;42.700;23.124;2023-01-31T01:13:44;92436.75;;;0.23;77.72
10718;BME280;13513;42.700;23.124;2023-01-31T01:16:26;92441.58;;;0.45;82.04
10718;BME280;13513;42.700;23.124;2023-01-31T01:18:52;92430.08;;;-0.06;89.84
10718;BME280;13513;42.700;23.124;2023-01-31T01:21:24;92430.95;;;-0.40;93.78
10718;BME280;13513;42.700;23.124;2023-01-31T01:24:00;92435.59;;;-0.29;93.69
10718;BME280;13513;42.700;23.124;2023-01-31T01:26:32;92431.38;;;-0.30;93.61
10718;BME280;13513;42.700;23.124;2023-01-31T01:29:03;92421.69;;;-0.38;92.00
10718;BME280;13513;42.700;23.124;2023-01-31T01:31:33;92415.33;;;-0.29;87.50
10718;BME280;13513;42.700;23.124;2023-01-31T01:34:06;92412.67;;;-0.12;84.00
10718;BME280;13513;42.700;23.124;2023-01-31T01:36:37;92416.92;;;0.02;81.92
10718;BME280;13513;42.700;23.124;2023-01-31T01:39:09;92408.14;;;0.09;81.83
10718;BME280;13513;42.700;23.124;2023-01-31T01:41:39;92402.27;;;0.18;81.49
10718;BME280;13513;42.700;23.124;2023-01-31T01:44:43;92411.50;;;0.34;79.68
10718;BME280;13513;42.700;23.124;2023-01-31T01:47:15;92422.77;;;0.30;78.74
10718;BME280;13513;42.700;23.124;2023-01-31T01:49:48;92416.89;;;0.39;78.49
10718;BME280;13513;42.700;23.124;2023-01-31T01:52:20;92420.39;;;0.35;79.11
10718;BME280;13513;42.700;23.124;2023-01-31T01:55:01;92420.30;;;0.39;78.90
10718;BME280;13513;42.700;23.124;2023-01-31T01:57:35;92416.26;;;0.17;79.44
10718;BME280;13513;42.700;23.124;2023-01-31T02:00:18;92407.89;;;0.22;77.79
10718;BME280;13513;42.700;23.124;2023-01-31T02:02:46;92418.38;;;0.24;78.31
10718;BME280;13513;42.700;23.124;2023-01-31T02:05:23;92410.97;;;0.21;77.81
10718;BME280;13513;42.700;23.124;2023-01-31T02:07:54;92419.29;;;0.27;77.51
10718;BME280;13513;42.700;23.124;2023-01-31T02:10:33;92420.36;;;0.22;79.13
10718;BME280;13513;42.700;23.124;2023-01-31T02:13:02;92424.05;;;0.17;78.83
10718;BME280;13513;42.700;23.124;2023-01-31T02:15:34;92419.25;;;0.21;78.26
10718;BME280;13513;42.700;23.124;2023-01-31T02:18:05;92424.45;;;0.21;79.10
10718;BME280;13513;42.700;23.124;2023-01-31T02:20:47;92417.66;;;0.26;78.66
10718;BME280;13513;42.700;23.124;2023-01-31T02:32:34;92422.27;;;0.18;81.26
10718;BME280;13513;42.700;23.124;2023-01-31T02:35:09;92422.75;;;0.17;82.42
10718;BME280;13513;42.700;23.124;2023-01-31T02:37:56;92424.52;;;0.10;81.72
10718;BME280;13513;42.700;23.124;2023-01-31T02:40:41;92406.34;;;0.10;82.05
10718;BME280;13513;42.700;23.124;2023-01-31T02:43:21;92406.97;;;0.12;81.62
10718;BME280;13513;42.700;23.124;2023-01-31T02:51:22;92420.14;;;0.11;83.17
10718;BME280;13513;42.700;23.124;2023-01-31T02:53:58;92426.64;;;0.17;84.16
10718;BME280;13513;42.700;23.124;2023-01-31T02:56:32;92435.64;;;0.21;83.40
10718;BME280;13513;42.700;23.124;2023-01-31T03:01:50;92455.95;;;0.28;83.59
10718;BME280;13513;42.700;23.124;2023-01-31T03:04:19;92451.42;;;0.20;83.75
10718;BME280;13513;42.700;23.124;2023-01-31T03:07:03;92465.52;;;0.21;84.68
10718;BME280;13513;42.700;23.124;2023-01-31T03:15:33;92483.85;;;0.07;86.63
10718;BME280;13513;42.700;23.124;2023-01-31T03:18:12;92486.62;;;-0.02;88.39
10718;BME280;13513;42.700;23.124;2023-01-31T03:23:30;92493.68;;;-0.06;90.80
10718;BME280;13513;42.700;23.124;2023-01-31T03:26:02;92488.97;;;-0.07;92.40
10718;BME280;13513;42.700;23.124;2023-01-31T03:28:35;92496.81;;;0.00;92.49
10718;BME280;13513;42.700;23.124;2023-01-31T03:31:18;92511.01;;;0.04;93.29
10718;BME280;13513;42.700;23.124;2023-01-31T03:33:50;92510.15;;;0.21;91.42
10718;BME280;13513;42.700;23.124;2023-01-31T03:36:36;92517.28;;;0.29;92.45
10718;BME280;13513;42.700;23.124;2023-01-31T03:39:28;92515.30;;;0.31;92.73
10718;BME280;13513;42.700;23.124;2023-01-31T03:42:13;92527.67;;;0.29;93.96
10718;BME280;13513;42.700;23.124;2023-01-31T03:45:05;92521.55;;;0.26;94.84
10718;BME280;13513;42.700;23.124;2023-01-31T03:47:41;92517.66;;;0.26;95.42
10718;BME280;13513;42.700;23.124;2023-01-31T03:50:22;92526.20;;;0.44;95.61
10718;BME280;13513;42.700;23.124;2023-01-31T03:53:05;92534.02;;;0.50;95.63
10718;BME280;13513;42.700;23.124;2023-01-31T03:55:42;92520.05;;;0.51;95.56
10718;BME280;13513;42.700;23.124;2023-01-31T03:58:13;92533.16;;;0.60;95.49
10718;BME280;13513;42.700;23.124;2023-01-31T04:00:47;92529.89;;;0.69;95.34
10718;BME280;13513;42.700;23.124;2023-01-31T04:05:55;92525.55;;;0.59;95.83
10718;BME280;13513;42.700;23.124;2023-01-31T04:08:26;92532.34;;;0.60;95.93
10718;BME280;13513;42.700;23.124;2023-01-31T04:10:58;92542.16;;;0.58;95.99
10718;BME280;13513;42.700;23.124;2023-01-31T04:13:29;92543.92;;;0.51;97.29
10718;BME280;13513;42.700;23.124;2023-01-31T04:16:01;92550.02;;;0.47;98.42
10718;BME280;13513;42.700;23.124;2023-01-31T04:18:32;92548.47;;;0.36;99.87
10718;BME280;13513;42.700;23.124;2023-01-31T04:21:02;92548.05;;;0.26;100.00
10718;BME280;13513;42.700;23.124;2023-01-31T04:23:33;92552.75;;;0.33;100.00
10718;BME280;13513;42.700;23.124;2023-01-31T04:26:04;92554.11;;;0.22;100.00
10718;BME280;13513;42.700;23.124;2023-01-31T04:28:34;92548.89;;;0.16;100.00
10718;BME280;13513;42.700;23.124;2023-01-31T04:31:05;92555.43;;;0.29;100.00
10718;BME280;13513;42.700;23.124;2023-01-31T04:33:36;92555.84;;;0.26;100.00
10718;BME280;13513;42.700;23.124;2023-01-31T04:36:07;92555.92;;;0.22;100.00
10718;BME280;13513;42.700;23.124;2023-01-31T04:38:38;92558.96;;;0.08;100.00
10718;BME280;13513;42.700;23.124;2023-01-31T04:41:09;92555.85;;;0.08;100.00
10718;BME280;13513;42.700;23.124;2023-01-31T04:43:40;92556.64;;;0.03;100.00
10718;BME280;13513;42.700;23.124;2023-01-31T04:46:11;92555.82;;;0.02;100.00
10718;BME280;13513;42.700;23.124;2023-01-31T04:48:42;92554.84;;;0.09;100.00
10718;BME280;13513;42.700;23.124;2023-01-31T04:51:13;92555.36;;;0.09;100.00
10718;BME280;13513;42.700;23.124;2023-01-31T04:53:44;92565.05;;;0.11;100.00
10718;BME280;13513;42.700;23.124;2023-01-31T04:56:14;92565.05;;;0.11;100.00
10718;BME280;13513;42.700;23.124;2023-01-31T04:58:45;92563.66;;;0.15;100.00
10718;BME280;13513;42.700;23.124;2023-01-31T05:01:16;92569.48;;;0.17;100.00
10718;BME280;13513;42.700;23.124;2023-01-31T05:03:46;92568.83;;;0.26;100.00
10718;BME280;13513;42.700;23.124;2023-01-31T05:06:17;92567.18;;;0.18;100.00
10718;BME280;13513;42.700;23.124;2023-01-31T05:08:47;92571.61;;;0.24;100.00
10718;BME280;13513;42.700;23.124;2023-01-31T05:11:18;92565.95;;;0.31;100.00
10718;BME280;13513;42.700;23.124;2023-01-31T05:13:49;92553.25;;;0.26;100.00
10718;BME280;13513;42.700;23.124;2023-01-31T05:16:20;92558.62;;;0.24;100.00
10718;BME280;13513;42.700;23.124;2023-01-31T05:18:50;92573.59;;;0.22;100.00
10718;BME280;13513;42.700;23.124;2023-01-31T05:21:21;92574.89;;;0.22;100.00
10718;BME280;13513;42.700;23.124;2023-01-31T05:23:51;92571.29;;;0.23;100.00
10718;BME280;13513;42.700;23.124;2023-01-31T05:26:22;92563.72;;;0.22;100.00
10718;BME280;13513;42.700;23.124;2023-01-31T05:28:53;92557.91;;;0.20;100.00
10718;BME280;13513;42.700;23.124;2023-01-31T05:31:23;92570.99;;;0.22;100.00
10718;BME280;13513;42.700;23.124;2023-01-31T05:33:54;92573.89;;;0.23;100.00
10718;BME280;13513;42.700;23.124;2023-01-31T05:36:25;92574.57;;;0.15;100.00
10718;BME280;13513;42.700;23.124;2023-01-31T05:38:56;92575.89;;;0.21;100.00
10718;BME280;13513;42.700;23.124;2023-01-31T05:41:26;92580.09;;;0.22;100.00
10718;BME280;13513;42.700;23.124;2023-01-31T05:43:59;92584.09;;;0.25;100.00
10718;BME280;13513;42.700;23.124;2023-01-31T05:46:32;92594.66;;;0.23;100.00
10718;BME280;13513;42.700;23.124;2023-01-31T05:49:05;92594.80;;;0.26;100.00
10718;BME280;13513;42.700;23.124;2023-01-31T05:51:36;92590.33;;;0.37;100.00
10718;BME280;13513;42.700;23.124;2023-01-31T05:54:07;92589.25;;;0.35;100.00
10718;BME280;13513;42.700;23.124;2023-01-31T05:56:38;92597.16;;;0.38;100.00
10718;BME280;13513;42.700;23.124;2023-01-31T05:59:10;92599.47;;;0.43;100.00
10718;BME280;13513;42.700;23.124;2023-01-31T06:01:41;92601.11;;;0.57;100.00
10718;BME280;13513;42.700;23.124;2023-01-31T06:04:13;92609.45;;;0.70;100.00
10718;BME280;13513;42.700;23.124;2023-01-31T06:06:44;92602.77;;;0.71;100.00
10718;BME280;13513;42.700;23.124;2023-01-31T06:09:14;92618.48;;;0.80;100.00
10718;BME280;13513;42.700;23.124;2023-01-31T06:11:44;92620.20;;;0.77;100.00
10718;BME280;13513;42.700;23.124;2023-01-31T06:14:15;92616.33;;;0.90;100.00
10718;BME280;13513;42.700;23.124;2023-01-31T06:16:46;92617.05;;;1.01;100.00
10718;BME280;13513;42.700;23.124;2023-01-31T06:19:17;92620.25;;;1.03;100.00
10718;BME280;13513;42.700;23.124;2023-01-31T06:21:48;92618.74;;;0.98;100.00
10718;BME280;13513;42.700;23.124;2023-01-31T06:24:19;92615.37;;;1.04;100.00
10718;BME280;13513;42.700;23.124;2023-01-31T06:26:49;92619.28;;;1.11;100.00
10718;BME280;13513;42.700;23.124;2023-01-31T06:29:20;92623.37;;;1.09;100.00
10718;BME280;13513;42.700;23.124;2023-01-31T06:31:51;92628.29;;;1.15;100.00
10718;BME280;13513;42.700;23.124;2023-01-31T06:34:22;92628.09;;;1.16;100.00
10718;BME280;13513;42.700;23.124;2023-01-31T06:36:53;92618.09;;;1.20;100.00
10718;BME280;13513;42.700;23.124;2023-01-31T06:39:24;92622.09;;;1.22;99.76
10718;BME280;13513;42.700;23.124;2023-01-31T06:41:55;92620.39;;;1.19;99.54
10718;BME280;13513;42.700;23.124;2023-01-31T06:44:25;92621.80;;;1.21;99.75
10718;BME280;13513;42.700;23.124;2023-01-31T06:46:56;92619.78;;;1.23;99.51
10718;BME280;13513;42.700;23.124;2023-01-31T06:49:26;92621.31;;;1.28;99.02
10718;BME280;13513;42.700;23.124;2023-01-31T06:51:56;92621.80;;;1.21;99.21
10718;BME280;13513;42.700;23.124;2023-01-31T06:54:27;92625.30;;;1.24;99.81
10718;BME280;13513;42.700;23.124;2023-01-31T06:57:01;92621.98;;;1.13;100.00
10718;BME280;13513;42.700;23.124;2023-01-31T06:59:32;92625.89;;;1.26;100.00
10718;BME280;13513;42.700;23.124;2023-01-31T07:02:03;92626.91;;;1.32;99.44
10718;BME280;13513;42.700;23.124;2023-01-31T07:04:33;92629.93;;;1.35;98.25
10718;BME280;13513;42.700;23.124;2023-01-31T07:07:04;92627.33;;;1.42;98.89
10718;BME280;13513;42.700;23.124;2023-01-31T07:09:34;92630.52;;;1.50;98.04
10718;BME280;13513;42.700;23.124;2023-01-31T07:12:08;92628.04;;;1.59;98.07
10718;BME280;13513;42.700;23.124;2023-01-31T07:14:37;92628.92;;;1.56;98.73
10718;BME280;13513;42.700;23.124;2023-01-31T07:17:09;92625.41;;;1.46;99.42
10718;BME280;13513;42.700;23.124;2023-01-31T07:19:40;92631.23;;;1.35;100.00
10718;BME280;13513;42.700;23.124;2023-01-31T07:22:11;92634.33;;;1.41;100.00
10718;BME280;13513;42.700;23.124;2023-01-31T07:24:42;92640.34;;;1.48;100.00
10718;BME280;13513;42.700;23.124;2023-01-31T07:27:14;92636.83;;;1.52;100.00
10718;BME280;13513;42.700;23.124;2023-01-31T07:29:43;92647.47;;;1.57;100.00
10718;BME280;13513;42.700;23.124;2023-01-31T07:32:14;92645.58;;;1.68;100.00
10718;BME280;13513;42.700;23.124;2023-01-31T07:34:45;92650.36;;;1.77;98.70
10718;BME280;13513;42.700;23.124;2023-01-31T07:37:16;92649.27;;;1.82;98.70
10718;BME280;13513;42.700;23.124;2023-01-31T07:39:47;92641.25;;;1.90;98.41
10718;BME280;13513;42.700;23.124;2023-01-31T07:42:19;92640.23;;;1.98;98.33
10718;BME280;13513;42.700;23.124;2023-01-31T07:44:52;92638.63;;;2.03;98.65
10718;BME280;13513;42.700;23.124;2023-01-31T07:47:23;92644.44;;;2.12;97.71
10718;BME280;13513;42.700;23.124;2023-01-31T07:49:53;92649.03;;;2.10;97.63
10718;BME280;13513;42.700;23.124;2023-01-31T07:52:24;92650.05;;;2.09;97.68
10718;BME280;13513;42.700;23.124;2023-01-31T07:54:55;92641.02;;;2.11;97.99
10718;BME280;13513;42.700;23.124;2023-01-31T07:57:26;92652.84;;;2.14;97.10
10718;BME280;13513;42.700;23.124;2023-01-31T07:59:57;92654.55;;;2.17;98.24
10718;BME280;13513;42.700;23.124;2023-01-31T08:02:31;92660.67;;;2.07;98.08
10718;BME280;13513;42.700;23.124;2023-01-31T08:05:16;92660.36;;;2.13;97.84
10718;BME280;13513;42.700;23.124;2023-01-31T08:07:47;92655.34;;;2.31;97.21
10718;BME280;13513;42.700;23.124;2023-01-31T08:10:18;92662.86;;;2.17;96.28
10718;BME280;13513;42.700;23.124;2023-01-31T08:12:49;92657.92;;;2.37;96.53
10718;BME280;13513;42.700;23.124;2023-01-31T08:15:20;92652.20;;;2.44;96.18
10718;BME280;13513;42.700;23.124;2023-01-31T08:17:51;92642.94;;;2.55;95.46
10718;BME280;13513;42.700;23.124;2023-01-31T08:20:22;92630.98;;;2.28;97.78
10718;BME280;13513;42.700;23.124;2023-01-31T08:22:52;92638.75;;;2.41;97.54
10718;BME280;13513;42.700;23.124;2023-01-31T08:25:23;92639.95;;;2.51;96.31
10718;BME280;13513;42.700;23.124;2023-01-31T08:27:58;92650.27;;;2.55;95.59
10718;BME280;13513;42.700;23.124;2023-01-31T08:30:29;92658.27;;;2.60;95.81
10718;BME280;13513;42.700;23.124;2023-01-31T08:33:00;92659.48;;;2.58;95.61
10718;BME280;13513;42.700;23.124;2023-01-31T08:35:31;92663.46;;;2.67;95.96
10718;BME280;13513;42.700;23.124;2023-01-31T08:38:01;92664.47;;;2.66;95.31
10718;BME280;13513;42.700;23.124;2023-01-31T08:40:32;92661.37;;;2.66;95.40
10718;BME280;13513;42.700;23.124;2023-01-31T08:43:03;92656.77;;;2.62;94.80
10718;BME280;13513;42.700;23.124;2023-01-31T08:45:35;92654.54;;;2.72;95.20
10718;BME280;13513;42.700;23.124;2023-01-31T08:48:05;92646.39;;;2.71;95.42
10718;BME280;13513;42.700;23.124;2023-01-31T08:50:35;92646.56;;;2.54;95.21
10718;BME280;13513;42.700;23.124;2023-01-31T08:53:06;92645.80;;;2.27;95.46
10718;BME280;13513;42.700;23.124;2023-01-31T08:55:36;92649.27;;;2.85;95.59
10718;BME280;13513;42.700;23.124;2023-01-31T08:58:07;92647.61;;;3.81;88.02
10718;BME280;13513;42.700;23.124;2023-01-31T09:00:44;92643.84;;;3.46;86.01
10718;BME280;13513;42.700;23.124;2023-01-31T09:03:15;92637.02;;;4.43;83.85
10718;BME280;13513;42.700;23.124;2023-01-31T09:05:46;92631.80;;;6.06;71.72
10718;BME280;13513;42.700;23.124;2023-01-31T09:08:17;92629.66;;;7.79;58.97
10718;BME280;13513;42.700;23.124;2023-01-31T09:10:51;92619.77;;;9.98;54.71
10718;BME280;13513;42.700;23.124;2023-01-31T09:13:22;92619.36;;;10.35;48.67
10718;BME280;13513;42.700;23.124;2023-01-31T09:16:03;92615.63;;;9.78;47.68
10718;BME280;13513;42.700;23.124;2023-01-31T09:18:34;92623.92;;;7.96;51.35
10718;BME280;13513;42.700;23.124;2023-01-31T09:21:13;92616.81;;;6.73;57.18
10718;BME280;13513;42.700;23.124;2023-01-31T09:23:42;92625.33;;;5.79;63.11
10718;BME280;13513;42.700;23.124;2023-01-31T09:26:13;92631.31;;;5.18;68.79
10718;BME280;13513;42.700;23.124;2023-01-31T09:28:45;92628.16;;;4.89;71.79
10718;BME280;13513;42.700;23.124;2023-01-31T09:31:18;92632.28;;;4.43;75.05
10718;BME280;13513;42.700;23.124;2023-01-31T09:33:49;92616.41;;;4.19;77.61
10718;BME280;13513;42.700;23.124;2023-01-31T09:36:21;92618.80;;;3.63;82.54
10718;BME280;13513;42.700;23.124;2023-01-31T09:38:56;92626.03;;;3.76;83.35
10718;BME280;13513;42.700;23.124;2023-01-31T09:41:35;92607.67;;;3.74;83.48
10718;BME280;13513;42.700;23.124;2023-01-31T09:44:09;92602.64;;;3.88;83.49
10718;BME280;13513;42.700;23.124;2023-01-31T09:46:39;92589.17;;;4.09;81.86
10718;BME280;13513;42.700;23.124;2023-01-31T09:49:13;92584.97;;;4.17;80.96
10718;BME280;13513;42.700;23.124;2023-01-31T09:51:41;92583.13;;;3.90;81.03
10718;BME280;13513;42.700;23.124;2023-01-31T09:54:17;92589.19;;;3.84;81.97
10718;BME280;13513;42.700;23.124;2023-01-31T10:02:46;92589.78;;;3.62;81.25
10718;BME280;13513;42.700;23.124;2023-01-31T10:08:14;92583.19;;;3.13;84.12
10718;BME280;13513;42.700;23.124;2023-01-31T10:10:51;92581.68;;;2.99;83.94
10718;BME280;13513;42.700;23.124;2023-01-31T10:13:27;92592.08;;;3.05;83.97
10718;BME280;13513;42.700;23.124;2023-01-31T10:18:54;92584.50;;;2.97;85.45
10718;BME280;13513;42.700;23.124;2023-01-31T10:21:24;92591.22;;;2.96;86.72
10718;BME280;13513;42.700;23.124;2023-01-31T10:23:57;92592.94;;;2.93;87.47
10718;BME280;13513;42.700;23.124;2023-01-31T10:26:32;92584.82;;;3.07;86.70
10718;BME280;13513;42.700;23.124;2023-01-31T10:29:27;92575.61;;;3.05;86.17
10718;BME280;13513;42.700;23.124;2023-01-31T10:32:04;92573.12;;;3.01;85.22
10718;BME280;13513;42.700;23.124;2023-01-31T10:34:57;92556.66;;;3.31;84.06
10718;BME280;13513;42.700;23.124;2023-01-31T10:40:11;92570.66;;;4.19;78.66
10718;BME280;13513;42.700;23.124;2023-01-31T10:42:39;92566.53;;;4.21;77.12
10718;BME280;13513;42.700;23.124;2023-01-31T10:45:17;92569.39;;;3.95;77.98
10718;BME280;13513;42.700;23.124;2023-01-31T10:47:50;92566.88;;;3.97;77.84
10718;BME280;13513;42.700;23.124;2023-01-31T10:50:36;92559.11;;;4.18;77.36
10718;BME280;13513;42.700;23.124;2023-01-31T10:56:10;92553.19;;;4.38;76.26
10718;BME280;13513;42.700;23.124;2023-01-31T10:58:41;92556.36;;;4.22;75.39
10718;BME280;13513;42.700;23.124;2023-01-31T11:01:12;92561.44;;;3.99;78.21
10718;BME280;13513;42.700;23.124;2023-01-31T11:03:50;92564.41;;;4.02;79.94
10718;BME280;13513;42.700;23.124;2023-01-31T11:06:22;92556.17;;;3.90;81.29
10718;BME280;13513;42.700;23.124;2023-01-31T11:09:00;92556.31;;;3.86;82.18
10718;BME280;13513;42.700;23.124;2023-01-31T11:11:31;92553.98;;;3.78;82.38
10718;BME280;13513;42.700;23.124;2023-01-31T11:14:14;92549.69;;;4.08;82.35
10718;BME280;13513;42.700;23.124;2023-01-31T11:16:35;92558.55;;;4.07;80.80
10718;BME280;13513;42.700;23.124;2023-01-31T11:21:54;92576.63;;;4.35;80.06
10718;BME280;13513;42.700;23.124;2023-01-31T11:24:27;92570.45;;;4.21;81.17
10718;BME280;13513;42.700;23.124;2023-01-31T11:27:43;92569.49;;;3.97;83.31
10718;BME280;13513;42.700;23.124;2023-01-31T11:29:37;92560.16;;;3.83;84.44
10718;BME280;13513;42.700;23.124;2023-01-31T11:32:17;92558.59;;;3.67;86.17
10718;BME280;13513;42.700;23.124;2023-01-31T11:35:19;92558.50;;;3.55;87.90
10718;BME280;13513;42.700;23.124;2023-01-31T11:37:48;92555.89;;;3.55;89.06
10718;BME280;13513;42.700;23.124;2023-01-31T11:40:30;92550.12;;;3.47;88.77
10718;BME280;13513;42.700;23.124;2023-01-31T11:43:05;92548.95;;;3.43;88.89
10718;BME280;13513;42.700;23.124;2023-01-31T11:45:37;92551.72;;;3.48;89.28
10718;BME280;13513;42.700;23.124;2023-01-31T11:48:21;92548.33;;;3.47;88.13
10718;BME280;13513;42.700;23.124;2023-01-31T11:50:56;92544.89;;;3.62;88.42
10718;BME280;13513;42.700;23.124;2023-01-31T11:53:44;92550.62;;;3.71;88.31
10718;BME280;13513;42.700;23.124;2023-01-31T11:56:19;92550.97;;;3.65;86.92
10718;BME280;13513;42.700;23.124;2023-01-31T11:58:53;92551.64;;;3.45;86.91
10718;BME280;13513;42.700;23.124;2023-01-31T12:01:25;92557.73;;;3.39;87.76
10718;BME280;13513;42.700;23.124;2023-01-31T12:04:03;92561.25;;;3.36;86.19
10718;BME280;13513;42.700;23.124;2023-01-31T12:06:38;92563.10;;;3.44;85.79
10718;BME280;13513;42.700;23.124;2023-01-31T12:09:23;92553.56;;;3.41;86.42
10718;BME280;13513;42.700;23.124;2023-01-31T12:12:08;92562.63;;;3.38;85.73
10718;BME280;13513;42.700;23.124;2023-01-31T12:14:40;92564.27;;;3.33;86.21
10718;BME280;13513;42.700;23.124;2023-01-31T12:17:12;92567.85;;;3.38;85.90
10718;BME280;13513;42.700;23.124;2023-01-31T12:20:00;92565.79;;;3.31;85.75
10718;BME280;13513;42.700;23.124;2023-01-31T12:22:52;92565.79;;;3.31;85.78
10718;BME280;13513;42.700;23.124;2023-01-31T12:28:21;92564.59;;;3.34;86.18
10718;BME280;13513;42.700;23.124;2023-01-31T12:34:13;92570.41;;;3.45;84.76
10718;BME280;13513;42.700;23.124;2023-01-31T12:36:17;92563.72;;;3.55;84.05
10718;BME280;13513;42.700;23.124;2023-01-31T12:47:19;92566.95;;;3.11;84.83
10718;BME280;13513;42.700;23.124;2023-01-31T12:50:03;92570.44;;;3.29;84.83
10718;BME280;13513;42.700;23.124;2023-01-31T12:52:52;92559.57;;;3.17;84.04
10718;BME280;13513;42.700;23.124;2023-01-31T12:55:36;92567.33;;;3.30;85.03
10718;BME280;13513;42.700;23.124;2023-01-31T13:01:13;92567.52;;;3.44;84.95
10718;BME280;13513;42.700;23.124;2023-01-31T13:06:35;92555.92;;;3.73;82.33
10718;BME280;13513;42.700;23.124;2023-01-31T13:09:10;92548.20;;;3.60;81.39
10718;BME280;13513;42.700;23.124;2023-01-31T13:11:45;92553.92;;;3.60;82.69
10718;BME280;13513;42.700;23.124;2023-01-31T13:14:18;92552.17;;;3.78;81.33
10718;BME280;13513;42.700;23.124;2023-01-31T13:16:52;92559.39;;;4.01;80.79
10718;BME280;13513;42.700;23.124;2023-01-31T13:19:26;92551.23;;;3.91;78.20
10718;BME280;13513;42.700;23.124;2023-01-31T13:21:57;92555.96;;;3.82;79.38
10718;BME280;13513;42.700;23.124;2023-01-31T13:24:33;92559.13;;;3.75;80.92
10718;BME280;13513;42.700;23.124;2023-01-31T13:27:27;92565.89;;;3.83;80.55
10718;BME280;13513;42.700;23.124;2023-01-31T13:30:01;92556.42;;;3.97;77.47
10718;BME280;13513;42.700;23.124;2023-01-31T13:32:37;92565.18;;;3.85;77.78
10718;BME280;13513;42.700;23.124;2023-01-31T13:35:27;92565.92;;;3.92;79.49
10718;BME280;13513;42.700;23.124;2023-01-31T13:38:05;92570.06;;;4.08;76.51
10718;BME280;13513;42.700;23.124;2023-01-31T13:40:36;92570.52;;;4.05;76.59
10718;BME280;13513;42.700;23.124;2023-01-31T13:43:13;92576.09;;;4.00;76.89
10718;BME280;13513;42.700;23.124;2023-01-31T13:45:51;92571.89;;;3.99;76.68
10718;BME280;13513;42.700;23.124;2023-01-31T13:48:41;92575.43;;;3.95;76.38
10718;BME280;13513;42.700;23.124;2023-01-31T13:51:29;92578.24;;;3.85;76.76
10718;BME280;13513;42.700;23.124;2023-01-31T13:54:02;92589.33;;;3.80;76.61
10718;BME280;13513;42.700;23.124;2023-01-31T13:56:35;92586.91;;;3.94;75.52
10718;BME280;13513;42.700;23.124;2023-01-31T13:59:10;92577.64;;;3.83;75.21
10718;BME280;13513;42.700;23.124;2023-01-31T14:01:45;92588.08;;;3.74;75.86
10718;BME280;13513;42.700;23.124;2023-01-31T14:04:27;92588.89;;;3.74;76.11
10718;BME280;13513;42.700;23.124;2023-01-31T14:12:30;92595.23;;;4.55;70.82
10718;BME280;13513;42.700;23.124;2023-01-31T14:14:57;92600.11;;;4.78;70.61
10718;BME280;13513;42.700;23.124;2023-01-31T14:25:41;92603.06;;;3.85;74.08
10718;BME280;13513;42.700;23.124;2023-01-31T14:28:12;92611.70;;;3.61;75.43
10718;BME280;13513;42.700;23.124;2023-01-31T14:30:44;92616.80;;;3.34;77.52
10718;BME280;13513;42.700;23.124;2023-01-31T14:33:18;92619.95;;;3.27;79.47
10718;BME280;13513;42.700;23.124;2023-01-31T14:38:45;92622.41;;;3.22;79.33
10718;BME280;13513;42.700;23.124;2023-01-31T14:42:23;92632.31;;;3.07;81.49
10718;BME280;13513;42.700;23.124;2023-01-31T14:44:11;92622.34;;;2.69;84.03
10718;BME280;13513;42.700;23.124;2023-01-31T14:55:00;92641.65;;;2.07;90.91
10718;BME280;13513;42.700;23.124;2023-01-31T14:57:30;92651.13;;;2.23;91.46
10718;BME280;13513;42.700;23.124;2023-01-31T15:02:59;92648.45;;;2.08;93.02
10718;BME280;13513;42.700;23.124;2023-01-31T15:05:39;92650.84;;;2.16;92.30
10718;BME280;13513;42.700;23.124;2023-01-31T15:11:02;92654.05;;;2.24;92.46